createdAt,value
2022-09-21T00:01:26.732Z,3.60
2022-09-21T00:04:29.407Z,4.10
2022-09-21T00:07:32.205Z,3.50
2022-09-21T00:10:35.433Z,3.85
2022-09-21T00:13:39.607Z,4.00
2022-09-21T00:16:43.489Z,3.10
2022-09-21T00:19:46.430Z,3.50
2022-09-21T00:22:49.244Z,4.13
2022-09-21T00:25:51.849Z,3.53
2022-09-21T00:28:57.438Z,3.50
2022-09-21T00:32:00.155Z,3.57
2022-09-21T00:35:03.907Z,3.47
2022-09-21T00:38:06.463Z,3.75
2022-09-21T00:41:10.804Z,4.00
2022-09-21T00:44:36.161Z,3.77
2022-09-21T00:47:41.824Z,3.63
2022-09-21T00:50:48.724Z,3.87
2022-09-21T00:53:55.231Z,3.97
2022-09-21T00:57:03.023Z,4.03
2022-09-21T01:00:09.646Z,3.93
2022-09-21T01:03:13.701Z,4.90
2022-09-21T01:06:18.295Z,4.70
2022-09-21T01:09:20.988Z,4.73
2022-09-21T01:12:34.021Z,5.53
2022-09-21T01:15:41.525Z,4.35
2022-09-21T01:18:47.958Z,5.07
2022-09-21T01:21:56.353Z,4.67
2022-09-21T01:25:08.895Z,5.33
2022-09-21T01:28:24.501Z,5.10
2022-09-21T01:31:35.224Z,4.30
2022-09-21T01:34:43.025Z,5.20
2022-09-21T01:37:48.683Z,4.20
2022-09-21T01:40:53.974Z,5.17
2022-09-21T01:44:00.626Z,4.33
2022-09-21T01:47:07.879Z,4.40
2022-09-21T01:50:12.199Z,4.37
2022-09-21T01:53:19.377Z,4.20
2022-09-21T01:56:26.054Z,5.43
2022-09-21T01:59:32.665Z,5.13
2022-09-21T02:02:39.730Z,4.80
2022-09-21T02:05:42.867Z,3.90
2022-09-21T02:08:46.179Z,4.80
2022-09-21T02:11:48.797Z,4.80
2022-09-21T02:14:55.526Z,5.00
2022-09-21T02:18:05.572Z,4.37
2022-09-21T02:21:13.858Z,4.60
2022-09-21T02:24:24.928Z,4.17
2022-09-21T02:27:33.228Z,5.20
2022-09-21T02:30:36.744Z,4.37
2022-09-21T02:33:45.663Z,4.75
2022-09-21T02:36:51.217Z,4.23
2022-09-21T02:40:00.505Z,4.40
2022-09-21T02:43:07.355Z,4.70
2022-09-21T02:46:14.837Z,4.40
2022-09-21T02:49:20.965Z,4.60
2022-09-21T02:52:23.989Z,4.63
2022-09-21T02:55:27.310Z,4.80
2022-09-21T02:58:31.539Z,5.05
2022-09-21T03:01:34.918Z,4.20
2022-09-21T03:04:40.100Z,4.22
2022-09-21T03:07:42.955Z,4.97
2022-09-21T03:10:46.740Z,4.90
2022-09-21T03:16:51.873Z,4.97
2022-09-21T03:19:56.581Z,5.17
2022-09-21T03:22:59.091Z,4.40
2022-09-21T03:26:02.495Z,4.27
2022-09-21T03:29:05.653Z,5.30
2022-09-21T03:32:08.480Z,4.85
2022-09-21T03:35:12.340Z,4.70
2022-09-21T03:38:15.172Z,5.30
2022-09-21T03:41:18.941Z,5.13
2022-09-21T03:47:24.570Z,5.60
2022-09-21T03:50:29.475Z,4.25
2022-09-21T03:53:32.157Z,5.13
2022-09-21T03:56:34.989Z,4.97
2022-09-21T03:59:37.701Z,5.83
2022-09-21T04:02:41.018Z,5.30
2022-09-21T04:05:44.982Z,4.80
2022-09-21T04:08:47.760Z,4.77
2022-09-21T04:11:50.333Z,5.00
2022-09-21T04:14:53.024Z,4.63
2022-09-21T04:17:55.645Z,6.20
2022-09-21T04:21:00.746Z,6.13
2022-09-21T04:24:04.165Z,5.07
2022-09-21T04:27:06.868Z,5.35
2022-09-21T04:30:12.258Z,5.87
2022-09-21T04:33:15.291Z,5.07
2022-09-21T04:36:20.066Z,4.72
2022-09-21T04:39:24.110Z,5.13
2022-09-21T04:42:27.563Z,5.37
2022-09-21T04:45:30.144Z,5.18
2022-09-21T04:48:32.823Z,6.13
2022-09-21T04:51:36.855Z,5.23
2022-09-21T04:54:39.580Z,4.77
2022-09-21T04:57:42.415Z,5.40
2022-09-21T05:00:45.093Z,5.17
2022-09-21T05:03:47.990Z,5.33
2022-09-21T05:06:51.948Z,5.70
2022-09-21T05:10:05.259Z,5.07
2022-09-21T05:13:07.936Z,5.40
2022-09-21T05:16:10.989Z,5.70
2022-09-21T05:19:13.652Z,5.20
2022-09-21T05:22:17.993Z,5.93
2022-09-21T05:25:20.700Z,6.23
2022-09-21T05:28:24.182Z,5.80
2022-09-21T05:31:33.124Z,5.40
2022-09-21T05:34:42.952Z,5.63
2022-09-21T05:37:49.956Z,5.40
2022-09-21T05:40:53.550Z,5.53
2022-09-21T05:43:56.718Z,6.38
2022-09-21T05:47:02.781Z,6.43
2022-09-21T05:50:18.418Z,5.87
2022-09-21T05:53:43.389Z,6.40
2022-09-21T05:56:50.357Z,5.70
2022-09-21T06:00:02.674Z,6.67
2022-09-21T06:03:27.351Z,6.30
2022-09-21T06:06:30.061Z,6.57
2022-09-21T06:09:34.073Z,5.57
2022-09-21T06:12:36.795Z,5.90
2022-09-21T06:15:40.206Z,6.63
2022-09-21T06:18:43.315Z,7.47
2022-09-21T06:21:46.373Z,7.05
2022-09-21T06:24:50.648Z,6.40
2022-09-21T06:27:53.304Z,6.80
2022-09-21T06:30:57.275Z,5.83
2022-09-21T06:34:00.260Z,6.13
2022-09-21T06:37:03.279Z,6.18
2022-09-21T06:40:09.312Z,6.63
2022-09-21T06:43:12.056Z,6.17
2022-09-21T06:46:14.914Z,6.10
2022-09-21T06:49:17.783Z,5.90
2022-09-21T06:52:20.393Z,5.75
2022-09-21T06:55:24.397Z,5.80
2022-09-21T06:58:27.054Z,6.40
2022-09-21T07:01:29.716Z,6.00
2022-09-21T07:04:32.587Z,6.38
2022-09-21T07:07:36.451Z,6.00
2022-09-21T07:10:40.908Z,6.30
2022-09-21T07:13:44.093Z,6.57
2022-09-21T07:16:47.094Z,6.75
2022-09-21T07:19:50.496Z,6.45
2022-09-21T07:22:53.112Z,6.90
2022-09-21T07:25:57.295Z,6.30
2022-09-21T07:29:00.061Z,6.63
2022-09-21T07:32:03.099Z,6.03
2022-09-21T07:35:07.195Z,5.70
2022-09-21T07:38:09.841Z,6.97
2022-09-21T07:41:14.759Z,5.40
2022-09-21T07:44:17.511Z,6.00
2022-09-21T07:47:20.070Z,5.40
2022-09-21T07:50:23.048Z,5.10
2022-09-21T07:53:26.313Z,4.60
2022-09-21T07:56:30.607Z,6.10
2022-09-21T07:59:32.822Z,4.97
2022-09-21T08:02:35.724Z,4.87
2022-09-21T08:05:38.337Z,5.45
2022-09-21T08:08:41.713Z,4.73
2022-09-21T08:11:47.124Z,5.45
2022-09-21T08:14:50.127Z,5.63
2022-09-21T08:17:53.031Z,5.55
2022-09-21T08:20:56.211Z,4.65
2022-09-21T08:23:58.824Z,4.70
2022-09-21T08:27:02.961Z,4.00
2022-09-21T08:30:06.534Z,3.87
2022-09-21T08:33:09.240Z,4.60
2022-09-21T08:36:11.985Z,5.13
2022-09-21T08:39:14.676Z,5.10
2022-09-21T08:42:34.252Z,5.20
2022-09-21T08:45:41.057Z,4.37
2022-09-21T08:48:47.242Z,4.57
2022-09-21T08:51:54.619Z,3.83
2022-09-21T08:55:00.235Z,4.00
2022-09-21T08:58:04.256Z,4.10
2022-09-21T09:01:21.692Z,3.77
2022-09-21T09:04:30.812Z,4.37
2022-09-21T09:07:49.977Z,4.67
2022-09-21T09:11:00.037Z,4.03
2022-09-21T09:14:15.751Z,3.67
2022-09-21T09:17:31.755Z,3.80
2022-09-21T09:20:37.977Z,4.37
2022-09-21T09:23:44.773Z,3.13
2022-09-21T09:26:50.787Z,2.77
2022-09-21T09:30:02.800Z,3.03
2022-09-21T09:33:12.672Z,3.05
2022-09-21T09:36:15.275Z,2.40
2022-09-21T09:39:18.207Z,2.00
2022-09-21T09:42:34.465Z,1.67
2022-09-21T09:45:49.152Z,1.67
2022-09-21T09:49:07.253Z,2.40
2022-09-21T09:52:11.110Z,1.70
2022-09-21T09:55:20.259Z,1.40
2022-09-21T09:58:25.002Z,2.10
2022-09-21T10:01:42.701Z,1.63
2022-09-21T10:04:56.475Z,1.87
2022-09-21T10:07:59.944Z,1.80
2022-09-21T10:14:09.327Z,1.43
2022-09-21T10:17:17.692Z,1.20
2022-09-21T10:20:21.274Z,1.10
2022-09-21T10:23:24.566Z,1.23
2022-09-21T10:26:32.092Z,1.20
2022-09-21T10:29:42.484Z,1.37
2022-09-21T10:32:56.749Z,0.80
2022-09-21T10:35:59.657Z,1.10
2022-09-21T10:39:20.590Z,0.80
2022-09-21T10:42:23.325Z,0.53
2022-09-21T10:45:27.441Z,1.17
2022-09-21T10:48:31.475Z,0.60
2022-09-21T10:51:34.948Z,1.20
2022-09-21T10:57:42.860Z,0.80
2022-09-21T11:00:47.811Z,0.50
2022-09-21T11:03:56.839Z,0.80
2022-09-21T11:07:04.541Z,0.30
2022-09-21T11:10:14.289Z,0.50
2022-09-21T11:13:25.293Z,0.50
2022-09-21T11:16:32.676Z,0.70
2022-09-21T11:19:41.105Z,0.60
2022-09-21T11:22:56.711Z,0.60
2022-09-21T11:26:05.704Z,1.53
2022-09-21T11:29:13.462Z,0.70
2022-09-21T11:32:36.096Z,0.30
2022-09-21T11:35:48.037Z,0.40
2022-09-21T11:38:58.091Z,0.50
2022-09-21T11:42:12.015Z,0.90
2022-09-21T11:45:27.337Z,0.33
2022-09-21T11:48:40.241Z,0.60
2022-09-21T11:51:57.393Z,0.50
2022-09-21T11:55:14.181Z,0.70
2022-09-21T11:58:24.815Z,0.57
2022-09-21T12:01:41.190Z,0.43
2022-09-21T12:04:50.505Z,0.60
2022-09-21T12:08:14.965Z,0.53
2022-09-21T12:11:27.054Z,0.50
2022-09-21T12:14:34.570Z,0.50
2022-09-21T12:17:49.510Z,0.50
2022-09-21T12:20:59.078Z,0.40
2022-09-21T12:24:08.278Z,0.50
2022-09-21T12:27:15.491Z,1.13
2022-09-21T12:30:20.752Z,1.07
2022-09-21T12:33:28.680Z,0.40
2022-09-21T12:36:39.488Z,0.60
2022-09-21T12:39:48.760Z,0.40
2022-09-21T12:42:55.489Z,0.53
2022-09-21T12:45:59.733Z,0.50
2022-09-21T12:49:03.282Z,0.50
2022-09-21T12:52:08.669Z,0.47
2022-09-21T12:55:29.394Z,0.53
2022-09-21T12:58:44.146Z,0.50
2022-09-21T13:01:53.414Z,0.70
2022-09-21T13:05:06.106Z,0.40
2022-09-21T13:08:12.254Z,0.40
2022-09-21T13:11:21.364Z,1.00
2022-09-21T13:14:25.341Z,0.57
2022-09-21T13:17:30.778Z,0.70
2022-09-21T13:20:38.343Z,0.57
2022-09-21T13:23:42.348Z,0.50
2022-09-21T13:26:56.823Z,0.40
2022-09-21T13:30:22.714Z,0.53
2022-09-21T13:33:34.263Z,0.37
2022-09-21T13:36:37.463Z,0.40
2022-09-21T13:42:49.964Z,0.50
2022-09-21T13:45:58.292Z,0.40
2022-09-21T13:49:04.698Z,0.50
2022-09-21T13:52:17.011Z,0.50
2022-09-21T13:55:25.472Z,0.88
2022-09-21T13:58:32.808Z,0.45
2022-09-21T14:01:52.384Z,0.70
2022-09-21T14:04:55.825Z,0.50
2022-09-21T14:08:00.427Z,0.45
2022-09-21T14:11:05.724Z,0.70
2022-09-21T14:14:18.361Z,0.50
2022-09-21T14:17:37.868Z,0.40
2022-09-21T14:20:40.509Z,0.40
2022-09-21T14:23:43.432Z,0.50
2022-09-21T14:26:55.751Z,0.47
2022-09-21T14:30:06.310Z,0.65
2022-09-21T14:33:22.209Z,0.45
2022-09-21T14:36:31.112Z,0.40
2022-09-21T14:39:36.354Z,0.60
2022-09-21T14:42:40.622Z,0.55
2022-09-21T14:45:57.045Z,0.50
2022-09-21T14:49:09.091Z,0.60
2022-09-21T14:52:29.101Z,0.88
2022-09-21T14:55:43.845Z,2.05
2022-09-21T14:58:56.508Z,0.50
2022-09-21T15:02:03.454Z,0.52
2022-09-21T15:05:15.332Z,0.50
2022-09-21T15:08:51.830Z,0.40
2022-09-21T15:12:00.204Z,0.40
2022-09-21T15:15:23.041Z,0.50
2022-09-21T15:21:32.909Z,0.45
2022-09-21T15:24:35.571Z,0.50
2022-09-21T15:30:45.825Z,0.40
2022-09-21T15:33:52.328Z,0.45
2022-09-21T15:36:55.450Z,0.60
2022-09-21T15:40:02.093Z,0.50
2022-09-21T15:43:06.929Z,0.98
2022-09-21T15:46:12.550Z,0.40
2022-09-21T15:49:22.033Z,0.50
2022-09-21T15:52:29.803Z,0.90
2022-09-21T15:55:34.177Z,0.40
2022-09-21T15:58:38.205Z,0.40
2022-09-21T16:01:42.732Z,0.50
2022-09-21T16:04:50.027Z,0.40
2022-09-21T16:08:06.395Z,0.50
2022-09-21T16:11:15.004Z,0.70
2022-09-21T16:14:36.095Z,0.70
2022-09-21T16:17:39.234Z,0.80
2022-09-21T16:20:45.718Z,0.50
2022-09-21T16:23:49.445Z,0.95
2022-09-21T16:26:58.048Z,0.50
2022-09-21T16:30:01.200Z,0.73
2022-09-21T16:33:05.920Z,0.33
2022-09-21T16:36:38.136Z,0.53
2022-09-21T16:39:42.712Z,0.60
2022-09-21T16:42:46.553Z,0.50
2022-09-21T16:45:49.229Z,0.60
2022-09-21T16:48:53.812Z,0.52
2022-09-21T16:51:58.441Z,0.57
2022-09-21T16:55:01.248Z,0.80
2022-09-21T16:58:03.762Z,1.08
2022-09-21T17:01:06.584Z,0.70
2022-09-21T17:04:11.113Z,0.90
2022-09-21T17:07:16.740Z,1.10
2022-09-21T17:10:19.771Z,1.63
2022-09-21T17:13:22.592Z,1.80
2022-09-21T17:16:25.375Z,4.32
2022-09-21T17:19:28.070Z,1.83
2022-09-21T17:22:32.048Z,2.10
2022-09-21T17:25:36.402Z,2.13
2022-09-21T17:28:39.781Z,1.53
2022-09-21T17:31:42.456Z,1.50
2022-09-21T17:34:46.060Z,2.80
2022-09-21T17:44:02.402Z,2.53
2022-09-21T17:47:12.116Z,1.93
2022-09-21T17:50:20.788Z,1.87
2022-09-21T17:53:37.485Z,1.37
2022-09-21T17:56:45.118Z,1.50
2022-09-21T17:59:51.868Z,1.97
2022-09-21T18:02:55.222Z,1.67
2022-09-21T18:06:00.776Z,2.30
2022-09-21T18:09:05.685Z,2.00
2022-09-21T18:12:26.990Z,1.83
2022-09-21T18:15:37.545Z,2.00
2022-09-21T18:18:45.307Z,2.00
2022-09-21T18:21:50.608Z,1.90
2022-09-21T18:24:56.722Z,2.30
2022-09-21T18:28:02.440Z,3.23
2022-09-21T18:31:18.370Z,2.00
2022-09-21T18:34:41.470Z,3.00
2022-09-21T18:37:55.235Z,2.90
2022-09-21T18:41:14.314Z,2.92
2022-09-21T18:44:23.912Z,2.13
2022-09-21T18:47:32.729Z,1.70
2022-09-21T18:50:39.995Z,1.87
2022-09-21T18:53:47.174Z,2.13
2022-09-21T18:56:51.344Z,1.57
2022-09-21T18:59:54.669Z,1.80
2022-09-21T19:03:15.966Z,2.17
2022-09-21T19:06:29.417Z,1.70
2022-09-21T19:09:39.362Z,1.40
2022-09-21T19:13:03.745Z,1.20
2022-09-21T19:16:18.938Z,1.73
2022-09-21T19:19:30.907Z,1.83
2022-09-21T19:22:41.732Z,1.97
2022-09-21T19:25:49.997Z,2.37
2022-09-21T19:29:13.676Z,2.73
2022-09-21T19:32:18.230Z,2.22
2022-09-21T19:35:24.211Z,1.30
2022-09-21T19:38:28.533Z,1.83
2022-09-21T19:41:38.144Z,2.70
2022-09-21T19:44:58.879Z,1.40
2022-09-21T19:48:04.996Z,1.80
2022-09-21T19:51:15.630Z,2.27
2022-09-21T19:54:37.760Z,2.90
2022-09-21T19:57:58.748Z,2.80
2022-09-21T20:01:03.649Z,4.27
2022-09-21T20:04:07.344Z,3.30
2022-09-21T20:10:43.202Z,3.10
2022-09-21T20:14:06.287Z,2.60
2022-09-21T20:17:13.425Z,2.17
2022-09-21T20:20:19.946Z,2.43
2022-09-21T20:23:23.067Z,2.10
2022-09-21T20:26:27.420Z,2.35
2022-09-21T20:29:30.091Z,2.17
2022-09-21T20:32:34.520Z,2.00
2022-09-21T20:35:37.216Z,1.93
2022-09-21T20:38:39.859Z,1.80
2022-09-21T20:41:42.439Z,1.90
2022-09-21T20:44:45.129Z,1.80
2022-09-21T20:47:50.981Z,1.87
2022-09-21T20:50:54.100Z,1.70
2022-09-21T20:53:57.349Z,1.83
2022-09-21T20:57:00.080Z,2.25
2022-09-21T21:00:03.916Z,1.40
2022-09-21T21:03:07.983Z,1.90
2022-09-21T21:06:12.427Z,1.80
2022-09-21T21:09:15.061Z,1.73
2022-09-21T21:12:17.789Z,2.30
2022-09-21T21:15:20.527Z,2.00
2022-09-21T21:18:25.647Z,2.40
2022-09-21T21:21:28.408Z,2.67
2022-09-21T21:24:44.096Z,2.13
2022-09-21T21:27:46.720Z,1.87
2022-09-21T21:30:53.678Z,2.50
2022-09-21T21:33:58.004Z,2.20
2022-09-21T21:37:00.863Z,2.17
2022-09-21T21:40:03.858Z,2.50
2022-09-21T21:43:06.486Z,2.10
2022-09-21T21:46:09.515Z,2.40
2022-09-21T21:49:13.976Z,2.00
2022-09-21T21:52:16.482Z,2.10
2022-09-21T21:55:19.124Z,2.10
2022-09-21T21:58:21.937Z,2.30
2022-09-21T22:01:26.953Z,2.33
2022-09-21T22:04:30.973Z,2.50
2022-09-21T22:07:33.776Z,2.33
2022-09-21T22:10:36.376Z,2.45
2022-09-21T22:13:41.066Z,2.47
2022-09-21T22:16:43.684Z,2.80
2022-09-21T22:19:48.106Z,2.20
2022-09-21T22:22:50.622Z,2.40
2022-09-21T22:25:53.313Z,2.10
2022-09-21T22:29:03.065Z,2.33
2022-09-21T22:32:05.940Z,2.30
2022-09-21T22:35:10.280Z,2.10
2022-09-21T22:38:13.614Z,2.10
2022-09-21T22:41:17.910Z,2.20
2022-09-21T22:44:20.730Z,2.57
2022-09-21T22:47:23.337Z,2.30
2022-09-21T22:50:27.577Z,2.33
2022-09-21T22:53:31.449Z,2.10
2022-09-21T22:56:34.945Z,1.90
2022-09-21T22:59:37.537Z,2.00
2022-09-21T23:02:40.129Z,2.13
2022-09-21T23:05:44.183Z,2.50
2022-09-21T23:08:49.964Z,2.50
2022-09-21T23:11:53.827Z,2.03
2022-09-21T23:14:56.507Z,2.80
2022-09-21T23:17:59.323Z,2.30
2022-09-21T23:21:08.585Z,2.58
2022-09-21T23:24:11.814Z,2.40
2022-09-21T23:27:14.522Z,2.20
2022-09-21T23:30:17.172Z,2.23
2022-09-21T23:33:19.848Z,2.03
2022-09-21T23:36:26.062Z,2.60
2022-09-21T23:39:28.817Z,2.03
2022-09-21T23:42:31.543Z,2.05
2022-09-21T23:45:34.102Z,2.30
2022-09-21T23:48:37.047Z,2.40
2022-09-21T23:51:41.887Z,2.33
2022-09-21T23:54:45.317Z,2.63
2022-09-21T23:57:47.860Z,2.67
